createdAt,value
2022-08-17T00:00:34.595Z,14.75
2022-08-17T00:03:57.747Z,13.88
2022-08-17T00:07:20.099Z,16.17
2022-08-17T00:10:45.768Z,14.50
2022-08-17T00:14:10.990Z,13.02
2022-08-17T00:17:34.044Z,12.95
2022-08-17T00:20:57.801Z,14.77
2022-08-17T00:24:20.812Z,13.68
2022-08-17T00:27:44.289Z,12.35
2022-08-17T00:31:07.848Z,14.48
2022-08-17T00:34:29.697Z,17.83
2022-08-17T00:37:53.990Z,15.80
2022-08-17T00:41:21.536Z,15.48
2022-08-17T00:44:44.677Z,16.33
2022-08-17T00:48:06.850Z,14.93
2022-08-17T00:51:54.113Z,11.48
2022-08-17T00:55:16.620Z,12.13
2022-08-17T00:58:38.693Z,13.02
2022-08-17T01:02:03.807Z,11.55
2022-08-17T01:05:28.556Z,14.07
2022-08-17T01:08:57.556Z,12.05
2022-08-17T01:12:20.037Z,15.07
2022-08-17T01:15:59.724Z,11.75
2022-08-17T01:19:26.722Z,18.00
2022-08-17T01:22:50.736Z,16.27
2022-08-17T01:26:13.205Z,15.10
2022-08-17T01:29:38.305Z,13.38
2022-08-17T01:33:00.789Z,12.52
2022-08-17T01:36:23.141Z,13.82
2022-08-17T01:39:50.288Z,12.20
2022-08-17T01:43:16.228Z,11.68
2022-08-17T01:46:39.124Z,15.18
2022-08-17T01:50:08.782Z,10.75
2022-08-17T01:53:36.155Z,15.32
2022-08-17T01:56:59.386Z,13.82
2022-08-17T02:00:21.784Z,12.25
2022-08-17T02:03:59.026Z,12.65
2022-08-17T02:07:26.079Z,15.75
2022-08-17T02:10:49.971Z,14.45
2022-08-17T02:14:15.299Z,14.57
2022-08-17T02:17:37.872Z,13.27
2022-08-17T02:21:00.422Z,14.18
2022-08-17T02:24:59.329Z,12.85
2022-08-17T02:28:07.701Z,16.23
2022-08-17T02:31:31.560Z,14.48
2022-08-17T02:34:54.109Z,13.48
2022-08-17T02:38:16.906Z,13.98
2022-08-17T02:41:39.846Z,15.15
2022-08-17T02:45:02.158Z,15.02
2022-08-17T02:48:28.168Z,15.70
2022-08-17T02:51:53.444Z,14.07
2022-08-17T02:55:19.463Z,16.75
2022-08-17T02:58:41.836Z,11.90
2022-08-17T03:02:04.864Z,14.23
2022-08-17T03:05:31.346Z,11.07
2022-08-17T03:08:54.822Z,20.13
2022-08-17T03:12:18.141Z,15.93
2022-08-17T03:15:41.527Z,17.88
2022-08-17T03:19:06.475Z,15.70
2022-08-17T03:22:36.471Z,16.38
2022-08-17T03:26:01.167Z,15.65
2022-08-17T03:29:24.338Z,17.70
2022-08-17T03:32:49.642Z,15.75
2022-08-17T03:36:12.176Z,13.60
2022-08-17T03:39:35.804Z,15.07
2022-08-17T03:42:57.765Z,17.33
2022-08-17T03:46:37.618Z,13.23
2022-08-17T03:50:17.586Z,15.68
2022-08-17T03:54:07.697Z,18.67
2022-08-17T03:57:32.162Z,17.85
2022-08-17T04:00:56.192Z,17.15
2022-08-17T04:04:18.493Z,15.55
2022-08-17T04:07:40.585Z,12.82
2022-08-17T04:11:03.184Z,16.52
2022-08-17T04:14:26.524Z,17.70
2022-08-17T04:17:49.811Z,14.40
2022-08-17T04:21:12.084Z,12.85
2022-08-17T04:24:34.958Z,15.07
2022-08-17T04:27:57.797Z,11.30
2022-08-17T04:31:21.810Z,13.85
2022-08-17T04:34:44.044Z,17.02
2022-08-17T04:38:06.582Z,18.98
2022-08-17T04:41:46.032Z,12.40
2022-08-17T04:45:09.182Z,14.70
2022-08-17T04:48:37.208Z,15.15
2022-08-17T04:52:04.411Z,15.38
2022-08-17T04:55:27.121Z,12.40
2022-08-17T04:58:51.513Z,14.02
2022-08-17T05:02:15.605Z,15.38
2022-08-17T05:05:43.240Z,16.15
2022-08-17T05:09:06.155Z,14.05
2022-08-17T05:12:28.061Z,16.55
2022-08-17T05:15:55.036Z,14.07
2022-08-17T05:19:17.002Z,17.45
2022-08-17T05:22:49.630Z,18.25
2022-08-17T05:26:20.425Z,18.50
2022-08-17T05:29:48.777Z,19.40
2022-08-17T05:33:12.205Z,15.73
2022-08-17T05:36:42.267Z,13.20
2022-08-17T05:40:10.137Z,15.85
2022-08-17T05:43:34.118Z,16.00
2022-08-17T05:46:56.503Z,13.98
2022-08-17T05:50:27.185Z,24.73
2022-08-17T05:53:59.882Z,18.85
2022-08-17T05:57:53.478Z,19.42
2022-08-17T06:01:27.749Z,19.65
2022-08-17T06:05:06.956Z,17.23
2022-08-17T06:08:36.493Z,18.92
2022-08-17T06:12:04.878Z,14.15
2022-08-17T06:15:34.107Z,13.00
2022-08-17T06:19:00.982Z,17.45
2022-08-17T06:22:27.450Z,12.00
2022-08-17T06:25:53.630Z,10.93
2022-08-17T06:29:24.745Z,18.70
2022-08-17T06:32:51.234Z,17.33
2022-08-17T06:36:29.419Z,13.80
2022-08-17T06:43:44.058Z,15.70
2022-08-17T06:47:13.801Z,18.50
2022-08-17T06:50:40.088Z,12.90
2022-08-17T06:54:08.388Z,11.80
2022-08-17T06:57:33.674Z,12.67
2022-08-17T07:00:59.227Z,15.20
2022-08-17T07:04:25.356Z,14.02
2022-08-17T07:08:03.212Z,11.13
2022-08-17T07:11:31.786Z,15.32
2022-08-17T07:14:57.922Z,12.38
2022-08-17T07:18:20.519Z,18.48
2022-08-17T07:21:55.131Z,17.35
2022-08-17T07:25:21.497Z,17.50
2022-08-17T07:28:45.568Z,11.38
2022-08-17T07:32:08.948Z,16.15
2022-08-17T07:35:41.426Z,11.07
2022-08-17T07:39:06.512Z,17.13
2022-08-17T07:42:30.078Z,11.15
2022-08-17T07:46:19.835Z,10.23
2022-08-17T07:49:46.632Z,11.32
2022-08-17T07:53:18.098Z,12.90
2022-08-17T07:56:45.418Z,13.93
2022-08-17T08:00:26.626Z,12.10
2022-08-17T08:03:54.466Z,15.17
2022-08-17T08:07:27.168Z,11.73
2022-08-17T08:11:00.759Z,19.15
2022-08-17T08:14:29.627Z,12.73
2022-08-17T08:17:58.727Z,16.33
2022-08-17T08:21:29.622Z,16.10
2022-08-17T08:25:02.863Z,14.18
2022-08-17T08:28:31.477Z,16.70
2022-08-17T08:32:04.378Z,13.73
2022-08-17T08:35:33.018Z,11.85
2022-08-17T08:39:03.136Z,15.70
2022-08-17T08:42:33.698Z,14.00
2022-08-17T08:46:06.187Z,14.57
2022-08-17T08:50:05.706Z,25.73
2022-08-17T08:53:39.785Z,16.85
2022-08-17T08:57:24.430Z,10.45
2022-08-17T09:00:53.568Z,13.63
2022-08-17T09:05:10.010Z,13.20
2022-08-17T09:08:32.034Z,15.05
2022-08-17T09:12:05.183Z,20.80
2022-08-17T09:15:32.374Z,21.23
2022-08-17T09:19:04.356Z,14.23
2022-08-17T09:22:34.194Z,10.73
2022-08-17T09:26:04.324Z,10.93
2022-08-17T09:29:35.358Z,30.48
2022-08-17T09:33:00.274Z,14.88
2022-08-17T09:36:29.651Z,10.40
2022-08-17T09:43:28.976Z,9.68
2022-08-17T09:46:57.172Z,13.05
2022-08-17T09:51:05.139Z,8.35
2022-08-17T09:54:38.161Z,11.73
2022-08-17T09:58:10.802Z,8.13
2022-08-17T10:01:40.093Z,12.70
2022-08-17T10:05:10.488Z,10.15
2022-08-17T10:08:40.416Z,11.32
2022-08-17T10:12:20.602Z,10.73
2022-08-17T10:15:52.397Z,9.82
2022-08-17T10:19:19.825Z,8.40
2022-08-17T10:23:05.727Z,13.07
2022-08-17T10:26:46.324Z,12.88
2022-08-17T10:30:19.073Z,10.68
2022-08-17T10:33:56.742Z,10.50
2022-08-17T10:37:41.948Z,6.75
2022-08-17T10:41:17.690Z,11.13
2022-08-17T10:44:50.365Z,9.25
2022-08-17T10:48:36.757Z,9.68
2022-08-17T10:52:00.159Z,6.45
2022-08-17T10:55:22.049Z,12.15
2022-08-17T10:58:51.357Z,12.57
2022-08-17T11:02:19.072Z,12.60
2022-08-17T11:09:32.857Z,9.38
2022-08-17T11:13:05.684Z,10.73
2022-08-17T11:16:48.133Z,14.63
2022-08-17T11:20:37.775Z,10.30
2022-08-17T11:24:18.960Z,7.70
2022-08-17T11:27:42.699Z,8.88
2022-08-17T11:31:09.871Z,13.07
2022-08-17T11:34:34.724Z,14.20
2022-08-17T11:38:13.995Z,15.20
2022-08-17T11:41:49.045Z,10.13
2022-08-17T11:45:32.129Z,10.23
2022-08-17T11:49:21.693Z,10.50
2022-08-17T11:52:48.458Z,8.40
2022-08-17T11:56:12.189Z,12.45
2022-08-17T11:59:58.570Z,10.45
2022-08-17T12:03:27.622Z,9.82
2022-08-17T12:06:54.871Z,10.05
2022-08-17T12:10:22.049Z,10.45
2022-08-17T12:13:48.971Z,12.33
2022-08-17T12:17:22.452Z,9.10
2022-08-17T12:21:39.387Z,7.93
2022-08-17T12:25:10.415Z,9.60
2022-08-17T12:28:36.745Z,11.23
2022-08-17T12:32:02.279Z,11.68
2022-08-17T12:35:30.286Z,10.60
2022-08-17T12:39:13.000Z,9.60
2022-08-17T12:42:41.621Z,11.05
2022-08-17T12:46:13.460Z,16.83
2022-08-17T12:49:39.765Z,11.70
2022-08-17T12:53:02.732Z,10.52
2022-08-17T12:56:24.911Z,13.75
2022-08-17T12:59:50.821Z,14.02
2022-08-17T13:03:19.370Z,12.45
2022-08-17T13:06:49.219Z,11.55
2022-08-17T13:10:22.777Z,9.45
2022-08-17T13:13:46.956Z,11.82
2022-08-17T13:17:13.480Z,9.70
2022-08-17T13:20:38.333Z,12.60
2022-08-17T13:24:03.889Z,12.60
2022-08-17T13:27:29.053Z,11.88
2022-08-17T13:30:51.112Z,7.75
2022-08-17T13:34:20.448Z,8.52
2022-08-17T13:37:59.253Z,9.13
2022-08-17T13:41:33.791Z,10.48
2022-08-17T13:44:55.873Z,13.90
2022-08-17T13:48:24.967Z,12.98
2022-08-17T13:51:49.743Z,12.00
2022-08-17T13:55:19.976Z,9.00
2022-08-17T13:58:51.831Z,10.85
2022-08-17T14:02:14.980Z,11.85
2022-08-17T14:05:39.685Z,8.55
2022-08-17T14:09:04.957Z,10.90
2022-08-17T14:12:30.414Z,11.02
2022-08-17T14:15:56.364Z,13.93
2022-08-17T14:19:19.233Z,10.95
2022-08-17T14:22:46.399Z,10.23
2022-08-17T14:26:09.018Z,11.13
2022-08-17T14:29:35.405Z,10.18
2022-08-17T14:32:58.286Z,13.93
2022-08-17T14:36:20.498Z,11.57
2022-08-17T14:39:42.697Z,9.27
2022-08-17T14:43:04.728Z,13.27
2022-08-17T14:46:28.440Z,10.55
2022-08-17T14:49:50.757Z,12.32
2022-08-17T14:53:15.618Z,17.83
2022-08-17T14:56:38.809Z,13.10
2022-08-17T15:00:00.752Z,9.18
2022-08-17T15:03:24.095Z,11.95
2022-08-17T15:06:47.546Z,10.25
2022-08-17T15:10:10.025Z,14.38
2022-08-17T15:13:32.725Z,14.40
2022-08-17T15:16:54.664Z,10.65
2022-08-17T15:20:20.859Z,15.98
2022-08-17T15:23:42.795Z,12.30
2022-08-17T15:27:06.052Z,14.57
2022-08-17T15:30:28.670Z,10.10
2022-08-17T15:33:50.529Z,10.25
2022-08-17T15:37:14.012Z,11.55
2022-08-17T15:40:36.808Z,9.52
2022-08-17T15:43:58.968Z,14.15
2022-08-17T15:47:21.282Z,12.63
2022-08-17T15:50:45.261Z,16.63
2022-08-17T15:54:18.683Z,16.10
2022-08-17T15:57:41.674Z,10.05
2022-08-17T16:01:17.029Z,9.23
2022-08-17T16:04:44.102Z,11.63
2022-08-17T16:08:07.343Z,13.45
2022-08-17T16:11:31.153Z,13.95
2022-08-17T16:14:53.501Z,12.18
2022-08-17T16:18:15.849Z,8.77
2022-08-17T16:21:42.566Z,9.85
2022-08-17T16:25:07.644Z,13.43
2022-08-17T16:28:36.196Z,8.45
2022-08-17T16:31:59.481Z,10.98
2022-08-17T16:35:25.253Z,12.18
2022-08-17T16:38:47.117Z,9.63
2022-08-17T16:42:24.646Z,9.05
2022-08-17T16:45:52.006Z,12.95
2022-08-17T16:49:35.865Z,11.75
2022-08-17T16:53:06.601Z,10.05
2022-08-17T16:56:28.978Z,15.65
2022-08-17T16:59:51.640Z,14.40
2022-08-17T17:03:19.128Z,12.77
2022-08-17T17:06:51.682Z,14.98
2022-08-17T17:10:16.832Z,16.98
2022-08-17T17:13:42.584Z,16.25
2022-08-17T17:17:07.448Z,12.98
2022-08-17T17:20:40.228Z,11.32
2022-08-17T17:24:08.814Z,14.73
2022-08-17T17:27:42.682Z,9.60
2022-08-17T17:31:12.573Z,12.15
2022-08-17T17:34:35.875Z,11.63
2022-08-17T17:38:05.223Z,12.43
2022-08-17T17:41:32.064Z,10.73
2022-08-17T17:45:01.010Z,11.48
2022-08-17T17:48:23.629Z,20.48
2022-08-17T17:52:09.910Z,26.65
2022-08-17T17:55:48.477Z,17.73
2022-08-17T17:59:20.064Z,12.60
2022-08-17T18:02:52.792Z,15.70
2022-08-17T18:06:25.666Z,15.85
2022-08-17T18:10:04.536Z,22.60
2022-08-17T18:13:58.841Z,19.02
2022-08-17T18:17:21.739Z,17.63
2022-08-17T18:20:54.009Z,13.20
2022-08-17T18:24:30.917Z,13.38
2022-08-17T18:27:53.401Z,11.90
2022-08-17T18:31:20.437Z,12.18
2022-08-17T18:34:47.555Z,14.38
2022-08-17T18:38:21.685Z,12.75
2022-08-17T18:41:45.902Z,13.20
2022-08-17T18:45:09.066Z,18.75
2022-08-17T18:48:37.064Z,17.13
2022-08-17T18:55:32.825Z,13.55
2022-08-17T18:59:05.094Z,15.02
2022-08-17T19:02:44.156Z,14.65
2022-08-17T19:06:31.691Z,15.82
2022-08-17T19:09:59.291Z,17.33
2022-08-17T19:13:26.199Z,14.93
2022-08-17T19:16:52.665Z,16.80
2022-08-17T19:20:19.877Z,17.52
2022-08-17T19:23:54.207Z,16.03
2022-08-17T19:27:22.619Z,18.67
2022-08-17T19:30:45.547Z,15.95
2022-08-17T19:34:08.472Z,17.45
2022-08-17T19:37:38.161Z,19.88
2022-08-17T19:41:11.044Z,28.58
2022-08-17T19:44:47.367Z,24.65
2022-08-17T19:48:25.314Z,18.83
2022-08-17T19:51:59.929Z,22.35
2022-08-17T19:55:31.811Z,25.50
2022-08-17T19:59:02.511Z,22.83
2022-08-17T20:02:38.825Z,22.00
2022-08-17T20:06:13.404Z,18.15
2022-08-17T20:09:39.360Z,17.35
2022-08-17T20:13:08.409Z,22.95
2022-08-17T20:16:33.404Z,21.67
2022-08-17T20:20:04.141Z,20.98
2022-08-17T20:23:46.733Z,17.67
2022-08-17T20:27:16.480Z,15.88
2022-08-17T20:30:41.857Z,11.95
2022-08-17T20:34:33.672Z,17.48
2022-08-17T20:38:02.233Z,13.73
2022-08-17T20:41:26.477Z,16.45
2022-08-17T20:44:50.501Z,16.00
2022-08-17T20:48:36.301Z,19.00
2022-08-17T20:52:07.969Z,18.83
2022-08-17T20:55:55.845Z,17.10
2022-08-17T20:59:55.357Z,17.33
2022-08-17T21:03:50.853Z,15.23
2022-08-17T21:07:42.555Z,16.90
2022-08-17T21:11:56.766Z,16.92
2022-08-17T21:15:37.228Z,17.35
2022-08-17T21:19:10.398Z,18.00
2022-08-17T21:22:48.340Z,16.42
2022-08-17T21:26:19.910Z,13.88
2022-08-17T21:29:55.065Z,14.05
2022-08-17T21:33:36.921Z,16.35
2022-08-17T21:37:28.840Z,16.20
2022-08-17T21:40:54.509Z,15.80
2022-08-17T21:44:27.785Z,14.65
2022-08-17T21:48:08.993Z,12.23
2022-08-17T21:51:32.645Z,12.77
2022-08-17T21:54:59.078Z,12.98
2022-08-17T21:58:30.664Z,12.63
2022-08-17T22:01:57.996Z,14.15
2022-08-17T22:05:30.838Z,16.95
2022-08-17T22:09:05.916Z,13.18
2022-08-17T22:12:28.091Z,20.00
2022-08-17T22:16:36.572Z,17.98
2022-08-17T22:23:44.137Z,20.00
2022-08-17T22:27:10.469Z,20.95
2022-08-17T22:30:38.900Z,30.73
2022-08-17T22:34:11.548Z,25.17
2022-08-17T22:37:34.755Z,25.20
2022-08-17T22:41:13.603Z,30.95
2022-08-17T22:48:02.658Z,28.02
2022-08-17T22:51:33.490Z,30.08
2022-08-17T22:55:21.884Z,26.92
2022-08-17T22:59:08.220Z,26.63
2022-08-17T23:02:33.242Z,39.75
2022-08-17T23:06:06.671Z,39.17
2022-08-17T23:09:29.945Z,41.28
2022-08-17T23:12:53.565Z,38.80
2022-08-17T23:16:15.983Z,37.88
2022-08-17T23:19:37.903Z,35.03
2022-08-17T23:23:00.808Z,33.83
2022-08-17T23:26:23.381Z,35.28
2022-08-17T23:29:47.212Z,31.60
2022-08-17T23:33:15.545Z,43.17
2022-08-17T23:36:37.558Z,34.00
2022-08-17T23:39:59.499Z,34.00
2022-08-17T23:47:04.719Z,31.38
2022-08-17T23:50:29.893Z,31.27
2022-08-17T23:53:56.889Z,28.45
2022-08-17T23:57:33.819Z,35.95
